Time;durP1;ratioP1;P1;durP2;ratioP2;P2;SDS_P1;SDS_P2;PMS_P1;PMS_P2;Temp;Humidity;BMP_temperature;BMP_pressure;BME280_temperature;BME280_humidity;BME280_pressure;Samples;Min_cycle;Max_cycle;Signal;HPM_P1;HPM_P2
2022/10/18 00:04:09;;;;;;;38.75;34.65;;;;;;;12.83;100.00;100842.72;10623883;27;20081;-70
2022/10/18 00:09:11;;;;;;;49.78;36.10;;;;;;;13.18;100.00;100848.78;10630882;27;20062;-70
2022/10/18 00:14:13;;;;;;;39.03;33.08;;;;;;;12.90;100.00;100851.34;10631200;27;20201;-70
2022/10/18 00:19:14;;;;;;;45.67;34.83;;;;;;;12.73;100.00;100857.09;10630917;27;20078;-70
2022/10/18 00:24:16;;;;;;;47.17;38.35;;;;;;;12.67;100.00;100850.22;10630666;27;20031;-70
2022/10/18 00:29:18;;;;;;;46.13;35.58;;;;;;;12.72;100.00;100856.22;10630423;27;20039;-70
2022/10/18 00:34:19;;;;;;;38.08;34.08;;;;;;;12.67;100.00;100859.91;10630814;27;20081;-70
2022/10/18 00:39:21;;;;;;;39.90;33.65;;;;;;;12.52;100.00;100854.13;10630184;27;20043;-70
2022/10/18 00:44:26;;;;;;;46.17;35.13;;;;;;;12.66;100.00;100856.41;10629941;27;20480;-70
2022/10/18 00:49:37;;;;;;;36.42;32.75;;;;;;;12.50;100.00;100845.41;10629097;27;20526;-70
2022/10/18 00:54:41;;;;;;;45.47;35.03;;;;;;;12.64;100.00;100855.56;10629007;27;20114;-70
2022/10/18 00:59:44;;;;;;;43.45;33.72;;;;;;;12.61;100.00;100842.47;10629057;27;20084;-70
2022/10/18 01:04:47;;;;;;;40.67;32.38;;;;;;;12.34;100.00;100847.56;10610312;27;20050;-70
2022/10/18 01:10:13;;;;;;;35.50;31.35;;;;;;;12.14;100.00;100849.84;10628942;27;20112;-70
2022/10/18 01:15:37;;;;;;;39.55;34.17;;;;;;;12.60;100.00;100849.50;10628819;27;20039;-70
2022/10/18 01:21:07;;;;;;;48.08;30.25;;;;;;;12.50;100.00;100855.09;10628513;27;20058;-70
2022/10/18 01:26:25;;;;;;;35.83;32.17;;;;;;;12.09;100.00;100863.16;10628228;27;20043;-70
2022/10/18 01:31:42;;;;;;;39.55;32.47;;;;;;;12.17;100.00;100846.25;10627992;27;20043;-70
2022/10/18 01:36:50;;;;;;;35.92;29.98;;;;;;;12.18;100.00;100848.03;10627096;27;20092;-70
2022/10/18 01:41:53;;;;;;;32.58;29.27;;;;;;;12.01;100.00;100851.94;10627058;27;20039;-70
2022/10/18 01:46:56;;;;;;;35.47;31.00;;;;;;;12.22;100.00;100868.09;10627162;27;20050;-70
2022/10/18 01:51:58;;;;;;;34.95;30.58;;;;;;;12.26;100.00;100862.75;10626629;27;20039;-70
2022/10/18 01:57:24;;;;;;;34.58;30.88;;;;;;;12.16;100.00;100863.84;10626729;27;20043;-70
2022/10/18 02:02:38;;;;;;;31.25;28.38;;;;;;;12.17;100.00;100859.44;10626286;27;20043;-70
2022/10/18 02:07:45;;;;;;;27.70;25.40;;;;;;;12.09;100.00;100863.16;10626158;27;20412;-70
2022/10/18 02:13:01;;;;;;;28.38;25.67;;;;;;;11.94;100.00;100857.38;10626362;27;20073;-70
2022/10/18 02:18:09;;;;;;;28.55;26.02;;;;;;;11.80;100.00;100855.03;10627255;27;20043;-70
2022/10/18 02:23:14;;;;;;;30.35;27.52;;;;;;;12.12;100.00;100857.78;10627061;27;20536;-70
2022/10/18 02:28:16;;;;;;;27.42;25.08;;;;;;;12.19;100.00;100852.38;10624452;27;20059;-70
2022/10/18 02:33:29;;;;;;;27.13;24.48;;;;;;;11.88;100.00;100857.53;10624910;27;20122;-70
2022/10/18 02:38:31;;;;;;;27.67;24.95;;;;;;;11.70;100.00;100864.06;10624951;27;20047;-70
2022/10/18 02:43:34;;;;;;;25.77;23.67;;;;;;;11.61;100.00;100871.28;10626350;27;20067;-70
2022/10/18 02:48:35;;;;;;;25.55;23.50;;;;;;;11.66;100.00;100865.03;10624564;27;20066;-70
2022/10/18 02:53:37;;;;;;;26.08;23.35;;;;;;;11.95;100.00;100864.38;10625128;27;20039;-71
2022/10/18 02:58:38;;;;;;;25.08;22.77;;;;;;;12.07;100.00;100872.84;10624576;27;20069;-71
2022/10/18 03:03:40;;;;;;;25.55;23.15;;;;;;;11.87;100.00;100872.47;10624548;27;20110;-71
2022/10/18 03:08:42;;;;;;;26.65;24.08;;;;;;;11.75;100.00;100870.09;10605975;27;20446;-71
2022/10/18 03:13:43;;;;;;;25.48;23.50;;;;;;;11.54;100.00;100874.94;10623667;27;20047;-71
2022/10/18 03:18:45;;;;;;;23.95;21.85;;;;;;;11.30;100.00;100878.13;10624087;27;20057;-69
2022/10/18 03:23:46;;;;;;;24.58;22.48;;;;;;;11.43;100.00;100871.69;10624566;28;20036;-71
2022/10/18 03:28:48;;;;;;;24.48;22.58;;;;;;;11.31;100.00;100877.22;10623996;28;20397;-71
2022/10/18 03:33:49;;;;;;;27.88;25.00;;;;;;;11.53;100.00;100870.59;10623922;28;20035;-71
2022/10/18 03:38:51;;;;;;;30.02;25.05;;;;;;;11.65;100.00;100879.13;10623578;27;20077;-71
2022/10/18 03:43:53;;;;;;;26.05;23.45;;;;;;;11.60;100.00;100873.97;10613756;27;20076;-71
2022/10/18 03:48:54;;;;;;;23.42;21.38;;;;;;;11.50;100.00;100878.53;10631537;27;20225;-70
2022/10/18 03:53:56;;;;;;;26.50;23.77;;;;;;;11.69;100.00;100880.78;10631672;27;20070;-71
2022/10/18 03:58:57;;;;;;;25.55;23.30;;;;;;;11.70;100.00;100870.19;10631386;27;20450;-70
2022/10/18 04:03:59;;;;;;;25.05;22.70;;;;;;;11.68;100.00;100868.50;10630749;27;20395;-71
2022/10/18 04:09:00;;;;;;;25.48;22.88;;;;;;;11.53;100.00;100864.44;10631532;27;20453;-71
2022/10/18 04:14:07;;;;;;;24.13;21.97;;;;;;;11.49;100.00;100868.91;10612706;27;20039;-71
2022/10/18 04:19:08;;;;;;;24.77;22.67;;;;;;;11.88;100.00;100866.31;10630252;27;20043;-70
2022/10/18 04:24:10;;;;;;;24.23;21.92;;;;;;;12.15;100.00;100869.16;10630650;27;20096;-70
2022/10/18 04:29:11;;;;;;;24.52;22.35;;;;;;;12.09;100.00;100873.69;10630183;27;20043;-70
2022/10/18 04:34:13;;;;;;;25.98;23.83;;;;;;;12.19;100.00;100865.56;10629933;27;20511;-70
2022/10/18 04:39:15;;;;;;;26.90;24.13;;;;;;;12.18;100.00;100869.97;10630672;27;20071;-70
2022/10/18 04:44:17;;;;;;;24.27;22.30;;;;;;;12.20;100.00;100873.41;10629973;27;20065;-70
2022/10/18 04:49:18;;;;;;;24.85;22.58;;;;;;;12.19;100.00;100876.97;10629511;27;20067;-70
2022/10/18 04:54:20;;;;;;;25.25;23.10;;;;;;;12.22;100.00;100879.53;10628751;27;20442;-70
2022/10/18 04:59:27;;;;;;;25.65;23.63;;;;;;;12.33;100.00;100874.84;10611122;27;20043;-71
2022/10/18 05:04:28;;;;;;;23.70;21.70;;;;;;;12.38;100.00;100864.16;10629487;27;20104;-70
2022/10/18 05:09:30;;;;;;;27.42;24.60;;;;;;;12.39;100.00;100842.16;10628356;27;20047;-70
2022/10/18 05:14:32;;;;;;;27.50;24.73;;;;;;;12.46;100.00;100853.44;10628312;27;20039;-70
2022/10/18 05:19:33;;;;;;;36.85;28.95;;;;;;;12.52;100.00;100862.03;10609917;27;20051;-70
2022/10/18 05:24:35;;;;;;;62.25;41.22;;;;;;;12.78;100.00;100855.19;10629052;27;20046;-71
2022/10/18 05:29:36;;;;;;;47.30;34.95;;;;;;;13.00;100.00;100853.69;10611582;27;20065;-70
2022/10/18 05:34:38;;;;;;;57.30;38.40;;;;;;;13.14;100.00;100858.56;10630853;27;20088;-70
2022/10/18 05:39:40;;;;;;;64.32;42.45;;;;;;;13.00;100.00;100861.59;10631240;27;20043;-70
2022/10/18 05:44:42;;;;;;;55.42;40.45;;;;;;;12.91;100.00;100861.84;10619578;27;20442;-71
2022/10/18 05:49:44;;;;;;;125.40;70.13;;;;;;;12.93;100.00;100848.63;10629484;27;20107;-70
2022/10/18 05:54:46;;;;;;;74.63;49.38;;;;;;;13.07;100.00;100847.31;10628984;27;20043;-71
2022/10/18 05:59:47;;;;;;;68.78;45.20;;;;;;;13.23;100.00;100817.84;10610241;27;20063;-70
2022/10/18 06:04:49;;;;;;;55.55;42.67;;;;;;;13.37;100.00;100799.84;10608109;27;20118;-71
2022/10/18 06:09:51;;;;;;;64.72;43.15;;;;;;;13.53;100.00;100823.97;10610024;27;20055;-71
2022/10/18 06:14:53;;;;;;;59.97;42.08;;;;;;;13.44;100.00;100824.25;10632543;27;20110;-71
2022/10/18 06:19:56;;;;;;;56.35;40.67;;;;;;;13.58;100.00;100828.19;10622289;27;20104;-70
2022/10/18 06:24:58;;;;;;;57.53;43.33;;;;;;;13.65;100.00;100828.00;10621964;27;20047;-71
2022/10/18 06:30:00;;;;;;;57.05;40.22;;;;;;;13.78;100.00;100806.44;10634395;27;20095;-70
2022/10/18 06:35:02;;;;;;;58.47;38.97;;;;;;;13.78;100.00;100805.56;10636969;27;20096;-70
2022/10/18 06:40:05;;;;;;;50.28;39.42;;;;;;;13.57;100.00;100829.09;10615978;27;20442;-71
2022/10/18 06:45:07;;;;;;;54.80;41.20;;;;;;;13.45;100.00;100836.53;10615408;27;20134;-70
2022/10/18 06:50:12;;;;;;;47.83;40.00;;;;;;;13.24;100.00;100841.59;10620426;27;20050;-70
2022/10/18 06:55:14;;;;;;;58.42;42.65;;;;;;;13.16;100.00;100840.03;10636056;27;20035;-70
2022/10/18 07:00:16;;;;;;;46.97;38.47;;;;;;;13.35;100.00;100830.69;10637338;27;20047;-70
2022/10/18 07:05:19;;;;;;;41.85;37.03;;;;;;;13.72;100.00;100832.16;10619066;27;20100;-71
2022/10/18 07:10:21;;;;;;;46.08;35.75;;;;;;;13.92;100.00;100821.81;10633821;27;20053;-72
2022/10/18 07:15:24;;;;;;;35.55;31.08;;;;;;;14.00;100.00;100822.44;10617318;27;20088;-71
2022/10/18 07:20:26;;;;;;;33.38;30.00;;;;;;;14.20;100.00;100832.34;10636573;27;20078;-71
2022/10/18 07:25:29;;;;;;;36.20;32.10;;;;;;;13.87;100.00;100829.06;10630751;28;20043;-70
2022/10/18 07:30:31;;;;;;;44.83;33.83;;;;;;;14.04;100.00;100837.28;10624117;28;20096;-71
2022/10/18 07:35:33;;;;;;;47.05;34.33;;;;;;;13.91;100.00;100829.81;10624015;28;20539;-70
2022/10/18 07:40:34;;;;;;;36.35;30.25;;;;;;;14.22;100.00;100830.50;10623479;28;20047;-71
2022/10/18 07:45:36;;;;;;;40.42;30.80;;;;;;;14.21;100.00;100835.84;10623638;28;20088;-71
2022/10/18 07:50:42;;;;;;;33.03;29.60;;;;;;;14.53;100.00;100830.34;10606646;28;20092;-70
2022/10/18 07:55:44;;;;;;;26.48;24.40;;;;;;;14.60;100.00;100830.97;10623363;28;20039;-71
2022/10/18 08:00:46;;;;;;;29.08;25.98;;;;;;;14.54;100.00;100815.34;10623367;28;20054;-70
2022/10/18 08:05:54;;;;;;;27.85;25.00;;;;;;;14.75;100.00;100816.34;10623359;28;20063;-71
2022/10/18 08:11:04;;;;;;;27.38;24.77;;;;;;;14.79;100.00;100831.19;10605597;28;20496;-70
2022/10/18 08:16:09;;;;;;;26.83;24.30;;;;;;;14.78;100.00;100830.31;10622203;28;20047;-70
2022/10/18 08:21:12;;;;;;;27.65;25.25;;;;;;;14.55;100.00;100798.53;10622253;28;20408;-69
2022/10/18 08:26:16;;;;;;;29.15;26.58;;;;;;;15.04;100.00;100807.31;10623992;27;20067;-70
2022/10/18 08:31:19;;;;;;;29.52;26.85;;;;;;;15.11;100.00;100787.63;10629726;27;20043;-71
2022/10/18 08:36:20;;;;;;;30.02;27.23;;;;;;;15.08;100.00;100770.06;10630592;27;20485;-71
2022/10/18 08:41:30;;;;;;;28.40;25.73;;;;;;;15.15;100.00;100765.41;10630025;27;20116;-72
2022/10/18 08:46:35;;;;;;;29.08;26.40;;;;;;;14.93;100.00;100765.38;10629659;27;20096;-71
2022/10/18 08:51:44;;;;;;;28.02;25.88;;;;;;;14.77;100.00;100772.16;10629972;27;20047;-71
2022/10/18 08:56:53;;;;;;;29.63;26.50;;;;;;;14.96;100.00;100769.66;10628894;27;20039;-71
2022/10/18 09:02:32;;;;;;;28.48;26.33;;;;;;;14.87;100.00;100753.25;10629948;27;20047;-71
2022/10/18 09:07:55;;;;;;;29.55;26.83;;;;;;;14.79;100.00;100752.66;10628549;27;20122;-72
2022/10/18 09:13:47;;;;;;;28.73;26.38;;;;;;;14.99;100.00;100743.94;10628135;27;20065;-70
2022/10/18 09:19:11;;;;;;;27.30;25.30;;;;;;;15.20;100.00;100746.69;10539971;28;20407;-69
2022/10/18 09:24:38;;;;;;;30.98;27.35;;;;;;;15.12;100.00;100739.03;10540073;28;20052;-70
2022/10/18 09:30:05;;;;;;;28.73;26.30;;;;;;;15.28;100.00;100728.72;10539023;28;20044;-70
2022/10/18 09:35:20;;;;;;;28.70;26.13;;;;;;;15.36;99.90;100722.19;10539970;28;20063;-71
2022/10/18 09:40:25;;;;;;;29.85;26.92;;;;;;;15.42;100.00;100712.25;10539616;28;20079;-70
2022/10/18 09:45:36;;;;;;;28.95;26.13;;;;;;;15.49;100.00;100703.97;10514495;28;20048;-73
2022/10/18 09:50:42;;;;;;;31.38;28.67;;;;;;;15.62;99.38;100701.66;10544285;27;20088;-70
2022/10/18 09:56:02;;;;;;;30.30;27.27;;;;;;;15.68;100.00;100696.16;10627767;27;20042;-71
2022/10/18 10:01:05;;;;;;;30.85;27.77;;;;;;;15.87;99.43;100685.63;10626974;27;20277;-70
2022/10/18 10:06:15;;;;;;;31.92;28.65;;;;;;;15.95;98.84;100686.16;10626392;27;20046;-70
2022/10/18 10:11:33;;;;;;;30.88;27.88;;;;;;;16.33;94.21;100683.59;10626573;27;20055;-70
2022/10/18 10:16:43;;;;;;;31.95;28.58;;;;;;;16.23;97.22;100682.28;10626342;27;20059;-72
2022/10/18 10:21:47;;;;;;;29.95;26.92;;;;;;;16.26;96.73;100684.81;10607653;27;20076;-71
2022/10/18 10:26:49;;;;;;;31.55;28.50;;;;;;;16.44;95.43;100677.81;10625248;27;20065;-71
2022/10/18 10:32:03;;;;;;;31.63;29.23;;;;;;;16.17;97.77;100738.28;10571259;22;20483;-71
2022/10/18 10:37:23;;;;;;;35.80;29.00;;;;;;;15.84;99.73;100722.88;10541568;28;20062;-71
2022/10/18 10:42:24;;;;;;;32.85;29.90;;;;;;;15.63;100.00;100746.69;10541818;28;20040;-71
2022/10/18 10:47:35;;;;;;;31.55;28.83;;;;;;;15.58;100.00;100814.91;10523580;28;20056;-71
2022/10/18 10:52:39;;;;;;;31.77;28.88;;;;;;;15.33;100.00;100804.41;10541812;28;20040;-70
2022/10/18 10:57:44;;;;;;;31.02;28.65;;;;;;;15.10;100.00;100799.16;10524123;28;20092;-70
2022/10/18 11:02:46;;;;;;;25.60;23.60;;;;;;;15.29;100.00;100797.50;10523072;28;20040;-71
2022/10/18 11:08:09;;;;;;;24.42;22.60;;;;;;;15.24;100.00;100788.03;10523061;28;20089;-72
2022/10/18 11:13:34;;;;;;;21.92;19.20;;;;;;;15.15;100.00;100770.69;10522829;28;20105;-72
2022/10/18 11:18:36;;;;;;;21.55;19.92;;;;;;;15.26;100.00;100779.06;10540396;28;20044;-72
2022/10/18 11:23:40;;;;;;;20.00;18.58;;;;;;;15.07;100.00;100791.31;10541230;28;20036;-72
2022/10/18 11:29:01;;;;;;;16.75;15.38;;;;;;;14.98;100.00;100797.81;10539443;28;20040;-71
2022/10/18 11:34:16;;;;;;;15.55;14.40;;;;;;;15.13;100.00;100815.75;10540074;28;20056;-71
2022/10/18 11:39:23;;;;;;;12.60;11.60;;;;;;;15.49;100.00;100801.13;10539886;28;20040;-71
2022/10/18 11:44:30;;;;;;;12.93;12.02;;;;;;;15.24;100.00;100806.56;10540262;28;20514;-70
2022/10/18 11:49:40;;;;;;;11.07;10.20;;;;;;;15.24;100.00;100806.56;10539618;28;20542;-70
2022/10/18 11:54:58;;;;;;;11.10;10.13;;;;;;;15.30;100.00;100827.50;10539968;28;20051;-70
2022/10/18 12:00:47;;;;;;;9.70;9.02;;;;;;;15.30;100.00;100822.19;10521275;28;20048;-70
2022/10/18 12:05:51;;;;;;;9.13;8.30;;;;;;;14.99;100.00;100828.66;10459637;28;20045;-70
2022/10/18 12:10:56;;;;;;;6.63;5.97;;;;;;;15.07;100.00;100836.31;10443798;28;20049;-70
2022/10/18 12:16:08;;;;;;;4.95;3.83;;;;;;;15.01;100.00;100832.13;10462266;28;20171;-70
2022/10/18 12:21:11;;;;;;;4.47;4.07;;;;;;;14.98;100.00;100832.25;10460185;28;20053;-71
2022/10/18 12:26:14;;;;;;;2.85;2.63;;;;;;;15.15;100.00;100839.56;10459064;28;20099;-70
2022/10/18 12:31:32;;;;;;;3.50;2.63;;;;;;;15.33;100.00;100841.50;10458618;28;20529;-70
2022/10/18 12:36:53;;;;;;;2.70;2.45;;;;;;;15.08;100.00;100846.84;10486827;28;20108;-70
2022/10/18 12:41:55;;;;;;;3.22;2.58;;;;;;;14.97;100.00;100837.59;10561349;28;20056;-70
2022/10/18 12:47:00;;;;;;;3.53;2.92;;;;;;;15.01;100.00;100831.28;10588591;28;20480;-70
2022/10/18 12:52:05;;;;;;;8.15;2.17;;;;;;;15.20;100.00;100842.03;10587647;28;20137;-70
2022/10/18 12:57:22;;;;;;;2.63;1.90;;;;;;;15.12;100.00;100840.53;10588969;28;20036;-71
2022/10/18 13:02:26;;;;;;;1.83;1.50;;;;;;;15.26;100.00;100855.03;10588131;28;20043;-71
2022/10/18 13:07:30;;;;;;;2.17;1.70;;;;;;;15.18;100.00;100865.03;10587099;28;20542;-71
2022/10/18 13:12:45;;;;;;;1.85;1.70;;;;;;;15.17;100.00;100847.44;10586960;28;20097;-70
2022/10/18 13:17:57;;;;;;;2.03;1.70;;;;;;;15.10;100.00;100857.41;10586764;28;20378;-70
2022/10/18 13:23:26;;;;;;;3.05;2.20;;;;;;;15.09;100.00;100864.47;10586789;28;20047;-72
2022/10/18 13:28:44;;;;;;;3.80;2.15;;;;;;;15.51;100.00;100861.13;10567795;28;20043;-72
2022/10/18 13:33:46;;;;;;;2.38;2.17;;;;;;;15.18;100.00;100860.59;10586414;28;20127;-71
2022/10/18 13:38:56;;;;;;;4.90;3.97;;;;;;;15.19;100.00;100867.66;10567565;28;20052;-70
2022/10/18 13:44:01;;;;;;;4.63;4.22;;;;;;;15.30;100.00;100856.63;10567486;28;20047;-71
2022/10/18 13:49:33;;;;;;;4.13;3.72;;;;;;;15.28;100.00;100848.75;10585917;28;20051;-71
2022/10/18 13:55:13;;;;;;;3.22;2.92;;;;;;;15.22;100.00;100845.47;10585588;28;20075;-71
2022/10/18 14:00:49;;;;;;;3.47;2.42;;;;;;;15.30;100.00;100843.41;10568253;28;20061;-71
2022/10/18 14:05:54;;;;;;;2.73;1.83;;;;;;;15.31;100.00;100838.03;10586518;28;20089;-70
2022/10/18 14:10:59;;;;;;;2.75;2.55;;;;;;;15.25;100.00;100834.75;10586281;28;20039;-70
2022/10/18 14:16:29;;;;;;;2.22;1.92;;;;;;;15.25;100.00;100838.28;10584624;28;20484;-72
2022/10/18 14:21:37;;;;;;;2.03;1.85;;;;;;;15.54;100.00;100838.94;10584984;28;20493;-71
2022/10/18 14:26:39;;;;;;;2.45;2.20;;;;;;;15.54;100.00;100845.09;10566986;28;20101;-71
2022/10/18 14:31:51;;;;;;;1.98;1.75;;;;;;;15.54;100.00;100847.75;10566685;28;20561;-72
2022/10/18 14:36:52;;;;;;;2.80;2.00;;;;;;;15.38;100.00;100852.78;10584192;28;20381;-71
2022/10/18 14:41:56;;;;;;;3.20;2.78;;;;;;;15.33;100.00;100864.47;10566909;28;20504;-70
2022/10/18 14:47:12;;;;;;;2.78;2.50;;;;;;;15.22;100.00;100879.91;10583867;28;20420;-70
2022/10/18 14:52:18;;;;;;;1.77;1.67;;;;;;;15.32;100.00;100883.94;10584797;28;20096;-71
2022/10/18 14:57:30;;;;;;;3.05;1.40;;;;;;;15.08;100.00;100878.63;10583833;28;20040;-72
2022/10/18 15:02:36;;;;;;;1.60;1.23;;;;;;;15.12;100.00;100872.28;10583737;28;20035;-72
2022/10/18 15:07:37;;;;;;;1.63;1.27;;;;;;;15.17;100.00;100874.78;10583815;28;20039;-71
2022/10/18 15:12:41;;;;;;;2.00;1.65;;;;;;;15.01;100.00;100857.75;10583199;28;20491;-71
2022/10/18 15:18:05;;;;;;;2.17;2.05;;;;;;;15.07;100.00;100861.03;10583726;28;20453;-72
2022/10/18 15:23:30;;;;;;;1.73;1.60;;;;;;;14.93;100.00;100865.97;10565075;28;20051;-72
2022/10/18 15:28:50;;;;;;;2.28;2.08;;;;;;;14.84;100.00;100867.16;10583577;28;20485;-71
2022/10/18 15:33:53;;;;;;;2.65;2.45;;;;;;;14.93;100.00;100871.25;10565703;28;20489;-72
2022/10/18 15:39:07;;;;;;;2.00;1.90;;;;;;;14.95;100.00;100873.84;10590282;28;20040;-71
2022/10/18 15:44:27;;;;;;;2.55;2.35;;;;;;;14.71;100.00;100879.09;10590936;28;20051;-71
2022/10/18 15:49:55;;;;;;;3.53;2.30;;;;;;;14.78;100.00;100891.19;10590722;28;20538;-71
2022/10/18 15:54:59;;;;;;;3.25;2.95;;;;;;;14.65;100.00;100887.25;10590632;28;20080;-72
2022/10/18 16:00:06;;;;;;;2.72;2.40;;;;;;;14.48;100.00;100893.13;10590742;28;20036;-71
2022/10/18 16:05:19;;;;;;;3.50;3.30;;;;;;;14.35;100.00;100892.66;10590320;28;20486;-71
2022/10/18 16:10:21;;;;;;;2.80;2.60;;;;;;;14.26;100.00;100887.69;10591513;28;20065;-71
2022/10/18 16:15:23;;;;;;;2.90;2.70;;;;;;;14.14;100.00;100899.50;10572138;28;20512;-71
2022/10/18 16:20:25;;;;;;;3.30;3.10;;;;;;;14.08;100.00;100904.16;10571818;28;20085;-71
2022/10/18 16:25:27;;;;;;;3.70;3.40;;;;;;;14.08;100.00;100910.28;10590288;28;20039;-71
2022/10/18 16:30:32;;;;;;;3.30;3.00;;;;;;;14.40;100.00;100905.72;10563782;22;20037;-71
2022/10/18 16:35:34;;;;;;;3.08;2.78;;;;;;;14.21;100.00;100910.78;10418301;28;20566;-72
2022/10/18 16:40:36;;;;;;;3.00;2.80;;;;;;;14.26;100.00;100915.91;10418064;28;20051;-71
2022/10/18 16:45:42;;;;;;;2.75;2.55;;;;;;;14.05;100.00;100922.75;10419334;28;20099;-70
2022/10/18 16:50:44;;;;;;;2.38;2.17;;;;;;;14.19;100.00;100923.16;10484876;28;20057;-70
2022/10/18 16:55:46;;;;;;;3.42;3.00;;;;;;;13.98;100.00;100921.19;10485205;28;20563;-70
2022/10/18 17:00:48;;;;;;;2.10;2.00;;;;;;;13.89;100.00;100925.00;10484935;28;20050;-71
2022/10/18 17:05:50;;;;;;;2.45;2.25;;;;;;;13.93;100.00;100928.41;10418296;28;20049;-71
2022/10/18 17:10:56;;;;;;;3.03;2.83;;;;;;;13.98;100.00;100922.06;10487288;28;20045;-70
2022/10/18 17:15:58;;;;;;;3.55;3.35;;;;;;;14.13;100.00;100915.44;10417562;28;20124;-72
2022/10/18 17:21:01;;;;;;;4.85;4.55;;;;;;;13.87;100.00;100927.69;10485763;28;20110;-72
2022/10/18 17:26:03;;;;;;;3.97;3.67;;;;;;;13.77;100.00;100928.91;10485274;28;20136;-71
2022/10/18 17:31:26;;;;;;;3.85;3.55;;;;;;;13.59;100.00;100946.16;10416337;28;20041;-72
2022/10/18 17:36:29;;;;;;;4.32;4.00;;;;;;;13.55;100.00;100935.75;10501320;27;20388;-71
2022/10/18 17:41:31;;;;;;;4.75;4.35;;;;;;;13.48;100.00;100932.41;10416327;28;20131;-71
2022/10/18 17:46:32;;;;;;;5.32;4.95;;;;;;;13.48;100.00;100918.34;10415543;28;20091;-72
2022/10/18 17:51:34;;;;;;;5.10;4.80;;;;;;;13.26;100.00;100918.97;10484385;28;20128;-71
2022/10/18 17:56:38;;;;;;;5.47;5.15;;;;;;;13.11;100.00;100922.00;10417543;28;20037;-72
2022/10/18 18:01:40;;;;;;;7.57;7.00;;;;;;;13.05;100.00;100930.94;10415767;28;20056;-71
2022/10/18 18:06:44;;;;;;;6.53;6.05;;;;;;;13.07;100.00;100937.06;10485009;28;20448;-72
2022/10/18 18:11:47;;;;;;;7.60;6.80;;;;;;;13.16;100.00;100940.38;10417441;28;20109;-71
2022/10/18 18:16:49;;;;;;;9.77;9.10;;;;;;;13.22;100.00;100938.44;10485258;28;20152;-71
2022/10/18 18:21:54;;;;;;;10.70;10.00;;;;;;;13.29;100.00;100931.22;10417986;28;20052;-71
2022/10/18 18:26:56;;;;;;;9.30;8.73;;;;;;;13.35;100.00;100931.03;10417255;28;20041;-72
2022/10/18 18:32:02;;;;;;;8.95;8.45;;;;;;;13.44;100.00;100936.03;10415303;28;20053;-71
2022/10/18 18:37:03;;;;;;;8.38;7.78;;;;;;;13.44;100.00;100935.19;10415951;28;20041;-71
2022/10/18 18:42:06;;;;;;;9.65;8.75;;;;;;;13.60;100.00;100934.69;10484014;28;20418;-72
2022/10/18 18:47:07;;;;;;;10.48;9.63;;;;;;;13.56;100.00;100937.47;10414578;28;20046;-71
2022/10/18 18:52:14;;;;;;;9.70;8.95;;;;;;;13.44;100.00;100940.47;10413964;28;20065;-73
2022/10/18 18:57:16;;;;;;;8.85;8.35;;;;;;;13.38;100.00;100938.88;10414243;28;20548;-71
2022/10/18 19:02:18;;;;;;;9.23;8.60;;;;;;;13.41;100.00;100930.84;10413407;28;20379;-71
2022/10/18 19:07:19;;;;;;;7.75;7.18;;;;;;;13.47;100.00;100932.47;10411664;28;20049;-71
2022/10/18 19:12:21;;;;;;;7.75;7.32;;;;;;;13.37;100.00;100935.38;10412313;28;20418;-71
2022/10/18 19:17:23;;;;;;;9.13;8.57;;;;;;;13.36;100.00;100941.53;10480341;28;20042;-71
2022/10/18 19:22:25;;;;;;;10.50;9.80;;;;;;;13.51;100.00;100940.25;10411260;28;20053;-71
2022/10/18 19:27:26;;;;;;;9.43;8.73;;;;;;;13.65;100.00;100941.63;10412668;28;20389;-71
2022/10/18 19:32:28;;;;;;;9.00;8.48;;;;;;;13.68;100.00;100946.78;10410862;28;20045;-72
2022/10/18 19:37:30;;;;;;;7.78;7.28;;;;;;;13.73;100.00;100955.47;10480064;28;20041;-71
2022/10/18 19:42:32;;;;;;;9.95;9.25;;;;;;;13.61;100.00;100946.97;10480147;28;20053;-71
2022/10/18 19:47:37;;;;;;;10.52;9.82;;;;;;;13.76;100.00;100955.34;10412683;28;20410;-72
2022/10/18 19:52:39;;;;;;;10.85;10.18;;;;;;;13.69;100.00;100965.25;10479199;28;20065;-72
2022/10/18 19:57:40;;;;;;;10.73;10.13;;;;;;;13.70;100.00;100963.47;10411671;28;20106;-72
2022/10/18 20:02:42;;;;;;;9.85;9.15;;;;;;;13.59;100.00;100947.91;10410930;28;20487;-71
2022/10/18 20:07:46;;;;;;;12.48;11.57;;;;;;;13.33;100.00;100964.56;10479198;28;20454;-71
2022/10/18 20:12:47;;;;;;;12.82;11.98;;;;;;;13.34;100.00;100958.34;10411362;28;20518;-72
2022/10/18 20:17:49;;;;;;;12.52;11.63;;;;;;;13.47;100.00;100959.72;10481227;28;20052;-71
2022/10/18 20:22:51;;;;;;;13.18;12.35;;;;;;;13.35;100.00;100954.78;10419089;28;20498;-71
2022/10/18 20:27:52;;;;;;;13.27;12.48;;;;;;;13.21;100.00;100947.25;10418146;28;20060;-71
2022/10/18 20:32:54;;;;;;;14.25;13.25;;;;;;;13.31;100.00;100945.22;10416684;28;20455;-72
2022/10/18 20:37:56;;;;;;;13.65;12.85;;;;;;;13.18;100.00;100952.59;10486601;28;20073;-72
2022/10/18 20:42:58;;;;;;;14.57;13.68;;;;;;;12.94;100.00;100948.88;10401291;28;20049;-71
2022/10/18 20:48:04;;;;;;;19.10;17.73;;;;;;;13.18;100.00;100952.59;10416470;28;20041;-71
2022/10/18 20:53:06;;;;;;;15.65;14.57;;;;;;;13.15;100.00;100955.34;10484917;28;20066;-71
2022/10/18 20:58:09;;;;;;;15.95;14.73;;;;;;;12.87;100.00;100968.38;10416655;28;20049;-71
2022/10/18 21:03:10;;;;;;;17.23;16.13;;;;;;;12.87;100.00;100963.13;10485485;28;20052;-71
2022/10/18 21:08:17;;;;;;;18.15;16.95;;;;;;;12.72;100.00;100959.13;10415969;28;20061;-71
2022/10/18 21:13:19;;;;;;;17.63;16.52;;;;;;;12.65;100.00;100960.16;10415438;28;20056;-73
2022/10/18 21:18:27;;;;;;;14.85;13.75;;;;;;;12.70;100.00;100957.41;10469734;28;20494;-75
2022/10/18 21:23:28;;;;;;;18.67;17.48;;;;;;;12.74;100.00;100962.56;10483244;28;20053;-73
2022/10/18 21:28:30;;;;;;;16.40;15.20;;;;;;;12.69;100.00;100958.31;10482877;28;20057;-74
2022/10/18 21:33:32;;;;;;;16.63;15.63;;;;;;;12.75;100.00;100955.50;10414668;28;20045;-74
2022/10/18 21:38:34;;;;;;;16.50;15.30;;;;;;;12.75;100.00;100956.41;10482707;28;20110;-73
2022/10/18 21:43:39;;;;;;;19.25;17.75;;;;;;;12.71;100.00;100961.81;10414099;28;20045;-73
2022/10/18 21:48:43;;;;;;;23.88;21.80;;;;;;;12.71;100.00;100967.94;10482013;28;20042;-73
2022/10/18 21:53:47;;;;;;;20.92;19.42;;;;;;;12.90;100.00;100963.03;10482315;28;20124;-73
2022/10/18 21:58:48;;;;;;;22.17;20.52;;;;;;;13.00;100.00;100961.03;10413996;28;20041;-73
2022/10/18 22:03:56;;;;;;;19.17;17.77;;;;;;;12.81;100.00;100966.78;10413558;28;20045;-73
2022/10/18 22:09:02;;;;;;;21.77;19.85;;;;;;;12.75;100.00;100968.72;10480368;28;20098;-73
2022/10/18 22:14:04;;;;;;;29.02;26.63;;;;;;;13.01;100.00;100962.75;10414001;28;20060;-73
2022/10/18 22:19:07;;;;;;;28.35;25.88;;;;;;;13.19;100.00;100953.44;10412721;28;20076;-74
2022/10/18 22:24:08;;;;;;;26.50;24.20;;;;;;;13.01;100.00;100949.53;10412407;28;20078;-74
2022/10/18 22:29:18;;;;;;;30.95;28.05;;;;;;;13.26;100.00;100955.06;10485888;28;20482;-72
2022/10/18 22:34:26;;;;;;;28.35;25.88;;;;;;;13.00;100.00;100951.31;10480425;28;20547;-73
2022/10/18 22:39:28;;;;;;;29.40;26.40;;;;;;;12.95;100.00;100963.78;10479471;28;20072;-73
2022/10/18 22:44:29;;;;;;;33.05;28.13;;;;;;;12.96;100.00;100960.22;10410670;28;20050;-72
2022/10/18 22:49:31;;;;;;;35.13;30.83;;;;;;;12.80;100.00;100959.78;10479931;28;20041;-72
2022/10/18 22:54:33;;;;;;;33.22;29.85;;;;;;;12.87;100.00;100949.91;10411490;28;20046;-72